Terminal Aerodrome Forecast
Issued by NWS Cleveland, OH

Home | Current Version | Previous Version | Text Only | Print | Product List | Glossary Off
Versions: 1 2 3 4 5 6 7 8 9 10 11 12 13 14 15

000
FTUS41 KCLE 281725
TAFYNG
TAF
KYNG 281725Z 2818/2918 20006KT P6SM VCTS SCT035CB BKN250
     FM290000 VRB03KT P6SM BKN250
     FM290900 VRB03KT 4SM BR OVC250
     FM291300 20005KT P6SM OVC250=

USA.gov is the U.S. government's official web portal to all federal, state and local government web resources and services.